Time;durP1;ratioP1;P1;durP2;ratioP2;P2;SDS_P1;SDS_P2;PMS_P1;PMS_P2;Temp;Humidity;BMP_temperature;BMP_pressure;BME280_temperature;BME280_humidity;BME280_pressure;Samples;Min_cycle;Max_cycle;Signal;HPM_P1;HPM_P2
2022/01/20 00:04:35;;;;;;;20.38;8.85;;;;;;;-146.07;100.00;70291.31;10319825;28;20594;-71
2022/01/20 00:30:44;;;;;;;26.90;11.48;;;;;;;-146.07;100.00;70291.31;10280668;28;20026;-75
2022/01/20 00:40:55;;;;;;;24.73;10.52;;;;;;;-146.07;100.00;70291.31;10327972;28;20054;-72
2022/01/20 00:45:56;;;;;;;31.70;13.20;;;;;;;-146.07;100.00;70291.31;10311214;28;20022;-77
2022/01/20 00:50:56;;;;;;;24.52;12.18;;;;;;;-146.07;100.00;70291.31;10291327;28;20035;-79
2022/01/20 00:55:56;;;;;;;30.08;13.35;;;;;;;-146.07;100.00;70291.31;10287295;28;20379;-72
2022/01/20 01:00:57;;;;;;;32.72;13.50;;;;;;;-146.07;100.00;70291.31;10284819;28;20054;-73
2022/01/20 01:11:20;;;;;;;22.27;9.57;;;;;;;-146.07;100.00;70291.31;10265499;28;20035;-71
2022/01/20 01:16:24;;;;;;;19.88;10.40;;;;;;;-146.07;100.00;70291.31;10267371;28;20543;-71
2022/01/20 01:21:43;;;;;;;38.95;15.13;;;;;;;-146.07;100.00;70291.31;10283961;28;20520;-75
2022/01/20 01:26:43;;;;;;;31.98;13.93;;;;;;;-146.07;100.00;70291.31;10269505;28;20038;-73
2022/01/20 01:31:44;;;;;;;32.55;14.65;;;;;;;-146.07;100.00;70291.31;10267037;28;20030;-79
2022/01/20 01:42:00;;;;;;;18.63;9.57;;;;;;;-146.07;100.00;70291.31;10284241;28;20039;-74
2022/01/20 01:47:01;;;;;;;16.88;8.95;;;;;;;-146.07;100.00;70291.31;10266574;28;20023;-76
2022/01/20 01:52:02;;;;;;;14.10;11.55;;;;;;;-146.07;100.00;70291.31;10265623;28;20532;-76
2022/01/20 01:57:06;;;;;;;26.80;12.10;;;;;;;-146.07;100.00;70291.31;10266819;28;20038;-72
2022/01/20 02:02:07;;;;;;;16.20;9.85;;;;;;;-146.07;100.00;70291.31;10250737;28;20045;-72
2022/01/20 02:22:54;;;;;;;24.42;9.88;;;;;;;-146.07;100.00;70291.31;10282537;28;20031;-78
2022/01/20 02:27:56;;;;;;;17.65;8.35;;;;;;;-146.07;100.00;70291.31;10281737;28;20022;-78
2022/01/20 02:33:03;;;;;;;18.42;9.25;;;;;;;-146.07;100.00;70291.31;10280980;28;20488;-74
2022/01/20 02:38:32;;;;;;;8.55;6.65;;;;;;;-146.07;100.00;70291.31;10280773;28;20469;-75
2022/01/20 02:48:43;;;;;;;18.25;10.50;;;;;;;-146.07;100.00;70291.31;10295277;28;20030;-77
2022/01/20 02:53:44;;;;;;;22.85;10.60;;;;;;;-146.07;100.00;70291.31;10321493;28;20014;-76
2022/01/20 02:58:44;;;;;;;16.70;11.40;;;;;;;-146.07;100.00;70291.31;10304656;28;20027;-76
2022/01/20 03:03:45;;;;;;;16.20;12.25;;;;;;;-146.07;100.00;70291.31;10302977;28;20503;-72
2022/01/20 03:08:45;;;;;;;26.02;13.38;;;;;;;-146.07;100.00;70291.31;10287286;28;20030;-72
2022/01/20 03:13:45;;;;;;;18.60;9.30;;;;;;;-146.07;100.00;70291.31;10303351;28;20152;-79
2022/01/20 03:18:46;;;;;;;17.80;8.40;;;;;;;-146.07;100.00;70291.31;10302968;28;20061;-72
2022/01/20 03:23:47;;;;;;;18.77;9.30;;;;;;;-146.07;100.00;70291.31;10303466;28;20026;-77
2022/01/20 03:28:47;;;;;;;13.35;7.93;;;;;;;-146.07;100.00;70291.31;10319399;28;20172;-70
2022/01/20 03:33:48;;;;;;;18.70;9.43;;;;;;;-146.07;100.00;70291.31;10318979;28;20318;-76
2022/01/20 03:38:48;;;;;;;17.38;9.85;;;;;;;-146.07;100.00;70291.31;10302570;28;20033;-72
2022/01/20 03:43:48;;;;;;;13.40;8.98;;;;;;;-146.07;100.00;70291.31;10302685;28;20092;-72
2022/01/20 03:48:51;;;;;;;21.45;11.38;;;;;;;-146.07;100.00;70291.31;10302518;28;20894;-73
2022/01/20 03:53:53;;;;;;;12.13;9.55;;;;;;;-146.07;100.00;70291.31;10319884;28;20097;-75
2022/01/20 03:58:54;;;;;;;19.08;10.27;;;;;;;-146.07;100.00;70291.31;10320017;28;20039;-71
2022/01/20 04:03:54;;;;;;;20.50;11.43;;;;;;;-146.07;100.00;70291.31;10318711;28;20047;-74
2022/01/20 04:08:55;;;;;;;20.00;10.60;;;;;;;-146.07;100.00;70291.31;10317926;28;20377;-72
2022/01/20 04:13:57;;;;;;;18.95;10.50;;;;;;;-146.07;100.00;70291.31;10317888;28;20022;-72
2022/01/20 04:18:59;;;;;;;28.55;11.95;;;;;;;-146.07;100.00;70291.31;10283154;28;20496;-70
2022/01/20 04:24:02;;;;;;;13.85;8.00;;;;;;;-146.07;100.00;70291.31;10285416;28;20042;-72
2022/01/20 04:29:04;;;;;;;18.63;8.32;;;;;;;-146.07;100.00;70291.31;10302148;28;20036;-72
2022/01/20 04:34:07;;;;;;;25.00;10.02;;;;;;;-146.07;100.00;70291.31;10300963;28;20057;-77
2022/01/20 04:39:10;;;;;;;21.05;10.55;;;;;;;-146.07;100.00;70291.31;10285895;28;20035;-72
2022/01/20 04:44:18;;;;;;;13.93;9.35;;;;;;;-146.07;100.00;70291.31;10285684;28;20086;-72
2022/01/20 04:59:38;;;;;;;22.90;12.52;;;;;;;-146.07;100.00;70291.31;10285017;28;20031;-71
2022/01/20 05:04:39;;;;;;;21.23;8.98;;;;;;;-146.07;100.00;70291.31;10273975;28;20040;-73
2022/01/20 05:09:40;;;;;;;15.70;8.60;;;;;;;-146.07;100.00;70291.31;10244082;28;20035;-72
2022/01/20 05:14:40;;;;;;;27.45;11.15;;;;;;;-146.07;100.00;70291.31;10262416;28;20023;-72
2022/01/20 05:19:41;;;;;;;24.48;12.38;;;;;;;-146.07;100.00;70291.31;10307111;28;20540;-72
2022/01/20 05:24:41;;;;;;;20.27;9.30;;;;;;;-146.07;100.00;70291.31;10267090;28;20035;-77
2022/01/20 05:29:42;;;;;;;16.48;10.38;;;;;;;-146.07;100.00;70291.31;10279689;28;20029;-74
2022/01/20 05:34:42;;;;;;;23.77;11.05;;;;;;;-146.07;100.00;70291.31;10323486;28;20416;-79
2022/01/20 05:39:44;;;;;;;17.10;9.05;;;;;;;-146.07;100.00;70291.31;10290938;28;20040;-76
2022/01/20 05:44:49;;;;;;;28.42;11.02;;;;;;;-146.07;100.00;70291.31;10322161;28;20066;-74
2022/01/20 05:49:49;;;;;;;27.67;11.75;;;;;;;-146.07;100.00;70291.31;10304868;28;20064;-74
2022/01/20 05:54:50;;;;;;;22.70;11.15;;;;;;;-146.07;100.00;70291.31;10256846;28;20125;-78
2022/01/20 05:59:50;;;;;;;16.60;9.80;;;;;;;-146.07;100.00;70291.31;10280251;28;20117;-74
2022/01/20 06:04:51;;;;;;;22.88;10.43;;;;;;;-146.07;100.00;70291.31;10282107;28;20053;-79
2022/01/20 06:09:51;;;;;;;37.20;12.48;;;;;;;-146.07;100.00;70291.31;10266372;28;20037;-73
2022/01/20 06:14:52;;;;;;;35.70;14.52;;;;;;;-146.07;100.00;70291.31;10282100;28;20481;-76
2022/01/20 06:19:52;;;;;;;24.02;11.48;;;;;;;-146.07;100.00;70291.31;10267711;28;20051;-76
2022/01/20 06:24:53;;;;;;;25.73;13.32;;;;;;;-146.07;100.00;70291.31;10290075;28;20512;-75
2022/01/20 06:29:53;;;;;;;20.38;12.02;;;;;;;-146.07;100.00;70291.31;10320831;28;20026;-74
2022/01/20 06:34:55;;;;;;;23.98;11.73;;;;;;;-146.07;100.00;70291.31;10321855;28;20041;-77
2022/01/20 06:39:56;;;;;;;24.17;12.52;;;;;;;-146.07;100.00;70291.31;10279765;28;20093;-75
2022/01/20 06:44:56;;;;;;;25.25;12.02;;;;;;;-146.07;100.00;70291.31;10280084;28;20043;-73
2022/01/20 06:49:57;;;;;;;21.48;12.13;;;;;;;-146.07;100.00;70291.31;10279904;28;20529;-75
2022/01/20 06:55:05;;;;;;;24.98;12.60;;;;;;;-146.07;100.00;70291.31;10279555;28;20469;-73
2022/01/20 07:00:10;;;;;;;18.55;10.52;;;;;;;-146.07;100.00;70291.31;10286170;28;20062;-75
2022/01/20 07:05:14;;;;;;;21.42;10.93;;;;;;;-146.07;100.00;70291.31;10279138;28;20564;-75
2022/01/20 07:10:19;;;;;;;23.75;12.20;;;;;;;-146.07;100.00;70291.31;10279466;28;20027;-76
2022/01/20 07:15:20;;;;;;;26.52;12.45;;;;;;;-146.07;100.00;70291.31;10279204;28;20288;-80
2022/01/20 07:20:20;;;;;;;26.80;10.45;;;;;;;-146.07;100.00;70291.31;10280773;28;20039;-80
2022/01/20 07:25:20;;;;;;;19.48;10.50;;;;;;;-146.07;100.00;70291.31;10278697;28;20027;-75
2022/01/20 07:30:21;;;;;;;36.45;11.82;;;;;;;-146.07;100.00;70291.31;10278953;28;20477;-74
2022/01/20 07:35:21;;;;;;;34.83;11.20;;;;;;;-146.07;100.00;70291.31;10263145;28;20037;-73
2022/01/20 07:40:22;;;;;;;24.63;12.05;;;;;;;-146.07;100.00;70291.31;10277851;28;20192;-75
2022/01/20 07:45:22;;;;;;;22.85;10.98;;;;;;;-146.07;100.00;70291.31;10278252;28;20035;-77
2022/01/20 07:50:23;;;;;;;29.63;10.13;;;;;;;-146.07;100.00;70291.31;10277447;28;20050;-76
2022/01/20 07:55:23;;;;;;;20.30;10.57;;;;;;;-146.07;100.00;70291.31;10278427;28;20421;-75
2022/01/20 08:00:24;;;;;;;19.60;11.13;;;;;;;-146.07;100.00;70291.31;10279187;28;20062;-79
2022/01/20 08:05:25;;;;;;;31.85;12.10;;;;;;;-146.07;100.00;70291.31;10261931;28;20457;-77
2022/01/20 08:10:25;;;;;;;31.23;12.52;;;;;;;-146.07;100.00;70291.31;10277587;28;20042;-75
2022/01/20 08:15:26;;;;;;;35.75;13.05;;;;;;;-146.07;100.00;70291.31;10261079;28;20054;-74
2022/01/20 08:20:26;;;;;;;31.83;12.52;;;;;;;-146.07;100.00;70291.31;10277683;28;20039;-75
2022/01/20 08:25:27;;;;;;;25.45;11.85;;;;;;;-146.07;100.00;70291.31;10276824;28;20125;-74
2022/01/20 08:30:27;;;;;;;27.85;12.10;;;;;;;-146.07;100.00;70291.31;10277662;28;20105;-74
2022/01/20 08:35:32;;;;;;;31.70;13.07;;;;;;;-146.07;100.00;70291.31;10277470;28;20026;-74
2022/01/20 08:40:33;;;;;;;29.63;11.15;;;;;;;-146.07;100.00;70291.31;10278409;28;20085;-75
2022/01/20 08:45:36;;;;;;;32.72;14.02;;;;;;;-146.07;100.00;70291.31;10276272;28;20026;-74
2022/01/20 08:50:36;;;;;;;33.40;13.02;;;;;;;-146.07;100.00;70291.31;10276355;28;20034;-77
2022/01/20 08:55:37;;;;;;;41.45;13.10;;;;;;;-146.07;100.00;70291.31;10277416;28;20038;-79
2022/01/20 09:00:38;;;;;;;32.38;11.07;;;;;;;-146.07;100.00;70291.31;10278443;28;20027;-74
2022/01/20 09:05:39;;;;;;;27.27;9.98;;;;;;;-146.07;100.00;70291.31;10249889;28;20034;-74
2022/01/20 09:10:42;;;;;;;28.92;11.27;;;;;;;-146.07;100.00;70291.31;10283703;28;20023;-74
2022/01/20 09:15:43;;;;;;;29.23;12.30;;;;;;;-146.07;100.00;70291.31;10283331;28;20505;-74
2022/01/20 09:20:44;;;;;;;34.05;12.02;;;;;;;-146.07;100.00;70291.31;10266558;28;20038;-81
2022/01/20 09:25:45;;;;;;;35.28;12.43;;;;;;;-146.07;100.00;70291.31;10284685;28;20194;-75
2022/01/20 09:30:46;;;;;;;23.80;9.75;;;;;;;-146.07;100.00;70291.31;10287795;28;20055;-76
2022/01/20 09:35:46;;;;;;;27.85;10.68;;;;;;;-146.07;100.00;70291.31;10305634;28;20045;-76
2022/01/20 09:40:48;;;;;;;26.33;10.50;;;;;;;-146.07;100.00;70291.31;10313017;28;20035;-74
2022/01/20 09:45:51;;;;;;;24.42;9.95;;;;;;;-146.07;100.00;70291.31;10312788;28;20252;-75
2022/01/20 09:50:52;;;;;;;25.15;11.38;;;;;;;-146.07;100.00;70291.31;10330973;28;20497;-75
2022/01/20 09:55:53;;;;;;;28.33;10.48;;;;;;;-146.07;100.00;70291.31;10312074;28;20018;-80
2022/01/20 10:00:58;;;;;;;27.63;10.73;;;;;;;-146.07;100.00;70291.31;10322928;28;20022;-81
2022/01/20 10:06:00;;;;;;;27.25;10.93;;;;;;;-146.07;100.00;70291.31;10323386;28;20095;-78
2022/01/20 10:11:06;;;;;;;37.25;11.10;;;;;;;-146.07;100.00;70291.31;10305527;28;20026;-80
2022/01/20 10:16:12;;;;;;;31.08;10.95;;;;;;;-146.07;100.00;70291.31;10321524;28;20053;-73
2022/01/20 10:21:14;;;;;;;25.88;11.18;;;;;;;-146.07;100.00;70291.31;10320379;28;20044;-74
2022/01/20 10:26:19;;;;;;;29.98;10.40;;;;;;;-146.07;100.00;70291.31;10320336;28;20018;-79
2022/01/20 10:31:34;;;;;;;24.67;9.75;;;;;;;-146.07;100.00;70291.31;10320553;28;20088;-75
2022/01/20 10:36:40;;;;;;;28.70;9.23;;;;;;;-146.07;100.00;70291.31;10320295;28;20526;-74
2022/01/20 10:41:40;;;;;;;26.67;9.10;;;;;;;-146.07;100.00;70291.31;10320072;28;20080;-78
2022/01/20 10:46:48;;;;;;;18.75;7.90;;;;;;;-146.07;100.00;70291.31;10320904;28;20076;-75
2022/01/20 10:52:02;;;;;;;35.35;9.05;;;;;;;-146.07;100.00;70291.31;10320710;28;20058;-76
2022/01/20 10:57:03;;;;;;;20.83;8.65;;;;;;;-146.07;100.00;70291.31;10319486;28;20037;-74
2022/01/20 11:02:09;;;;;;;17.35;7.90;;;;;;;-146.07;100.00;70291.31;10303161;28;20030;-79
2022/01/20 11:07:09;;;;;;;20.30;7.32;;;;;;;-146.07;100.00;70291.31;10318641;28;20121;-74
2022/01/20 11:12:14;;;;;;;15.88;7.95;;;;;;;-146.07;100.00;70291.31;10319044;28;20101;-75
2022/01/20 11:17:35;;;;;;;23.20;7.63;;;;;;;-146.07;100.00;70291.31;10317552;28;20533;-79
2022/01/20 11:22:36;;;;;;;25.65;8.73;;;;;;;-146.07;100.00;70291.31;10302055;28;20030;-75
2022/01/20 11:27:42;;;;;;;16.45;7.90;;;;;;;-146.07;100.00;70291.31;10318226;28;20109;-74
2022/01/20 11:32:45;;;;;;;23.33;8.30;;;;;;;-146.07;100.00;70291.31;10319901;28;20030;-74
2022/01/20 11:37:57;;;;;;;25.25;8.52;;;;;;;-146.07;100.00;70291.31;10317984;28;20031;-74
2022/01/20 11:43:09;;;;;;;23.38;7.80;;;;;;;-146.07;100.00;70291.31;10317858;28;20531;-79
2022/01/20 11:48:14;;;;;;;16.83;7.65;;;;;;;-146.07;100.00;70291.31;10318161;28;20552;-75
2022/01/20 11:53:18;;;;;;;14.02;7.53;;;;;;;-146.07;100.00;70291.31;10318266;28;20026;-75
2022/01/20 11:58:23;;;;;;;21.85;7.57;;;;;;;-146.07;100.00;70291.31;10319224;28;20030;-79
2022/01/20 12:03:23;;;;;;;9.18;2.78;;;;;;;-146.07;100.00;70291.31;10316910;28;20027;-74
2022/01/20 12:08:24;;;;;;;6.75;2.28;;;;;;;-146.07;100.00;70291.31;10301219;28;20027;-74
2022/01/20 12:13:24;;;;;;;2.85;1.40;;;;;;;-146.07;100.00;70291.31;10318560;28;20162;-76
2022/01/20 12:18:26;;;;;;;9.63;3.08;;;;;;;-146.07;100.00;70291.31;10316908;28;20054;-74
2022/01/20 12:23:27;;;;;;;9.30;2.50;;;;;;;-146.07;100.00;70291.31;10318278;28;20038;-79
2022/01/20 12:28:28;;;;;;;7.47;3.50;;;;;;;-146.07;100.00;70291.31;10301439;28;20026;-73
2022/01/20 12:33:31;;;;;;;10.05;2.67;;;;;;;-146.07;100.00;70291.31;10317827;28;20471;-74
2022/01/20 12:38:36;;;;;;;8.65;3.30;;;;;;;-146.07;100.00;70291.31;10319740;28;20025;-73
2022/01/20 12:43:41;;;;;;;3.92;2.30;;;;;;;-146.07;100.00;70291.31;10324518;28;20104;-75
2022/01/20 12:49:06;;;;;;;7.35;2.08;;;;;;;-146.07;100.00;70291.31;10324657;28;20061;-74
2022/01/20 12:54:07;;;;;;;10.70;2.80;;;;;;;-146.07;100.00;70291.31;10325746;28;20034;-74
2022/01/20 12:59:08;;;;;;;10.98;2.50;;;;;;;-146.07;100.00;70291.31;10323593;28;20037;-75
2022/01/20 13:04:14;;;;;;;5.45;2.33;;;;;;;-146.07;100.00;70291.31;10291684;28;20027;-74
2022/01/20 13:09:15;;;;;;;7.60;2.70;;;;;;;-146.07;100.00;70291.31;10283050;28;20054;-74
2022/01/20 13:14:15;;;;;;;8.82;2.88;;;;;;;-146.07;100.00;70291.31;10314913;28;20038;-74
2022/01/20 13:19:16;;;;;;;4.85;2.30;;;;;;;-146.07;100.00;70291.31;10310133;28;20055;-75
2022/01/20 13:24:25;;;;;;;9.05;2.63;;;;;;;-146.07;100.00;70291.31;10282840;28;20047;-76
2022/01/20 13:29:38;;;;;;;6.93;3.65;;;;;;;-146.07;100.00;70291.31;10304547;28;20476;-81
2022/01/20 13:34:50;;;;;;;4.05;2.30;;;;;;;-146.07;100.00;70291.31;10308392;28;20032;-75
2022/01/20 13:39:56;;;;;;;6.47;2.90;;;;;;;-146.07;100.00;70291.31;10324039;28;20101;-80
2022/01/20 13:45:12;;;;;;;3.05;1.60;;;;;;;-146.07;100.00;70291.31;10322058;28;20038;-73
2022/01/20 13:50:40;;;;;;;3.70;2.20;;;;;;;-146.07;100.00;70291.31;10281359;28;20035;-75
2022/01/20 13:55:43;;;;;;;4.53;2.30;;;;;;;-146.07;100.00;70291.31;10275466;28;20039;-76
2022/01/20 14:00:44;;;;;;;5.13;2.25;;;;;;;-146.07;100.00;70291.31;10282328;28;20026;-74
2022/01/20 14:05:45;;;;;;;3.88;1.95;;;;;;;-146.07;100.00;70291.31;10265699;28;20400;-74
2022/01/20 14:10:45;;;;;;;3.10;1.90;;;;;;;-146.07;100.00;70291.31;10265200;28;20569;-75
2022/01/20 14:15:47;;;;;;;5.82;2.63;;;;;;;-146.07;100.00;70291.31;10263562;28;20113;-79
2022/01/20 14:20:48;;;;;;;2.33;1.73;;;;;;;-146.07;100.00;70291.31;10281405;28;20043;-78
2022/01/20 14:25:48;;;;;;;2.97;1.90;;;;;;;-146.07;100.00;70291.31;10285135;28;20446;-80
2022/01/20 14:30:49;;;;;;;9.25;2.20;;;;;;;-146.07;100.00;70291.31;10296416;28;20019;-79
2022/01/20 14:35:50;;;;;;;9.45;2.35;;;;;;;-146.07;100.00;70291.31;10294815;28;20022;-73
2022/01/20 14:40:54;;;;;;;9.30;2.60;;;;;;;-146.07;100.00;70291.31;10281305;28;20037;-71
2022/01/20 14:45:54;;;;;;;5.95;2.28;;;;;;;-146.07;100.00;70291.31;10263289;28;20027;-73
2022/01/20 14:50:55;;;;;;;6.22;3.20;;;;;;;-146.07;100.00;70291.31;10280023;28;20019;-72
2022/01/20 14:55:55;;;;;;;10.52;3.00;;;;;;;-146.07;100.00;70291.31;10279715;28;20031;-73
2022/01/20 15:00:56;;;;;;;7.30;2.78;;;;;;;-146.07;100.00;70291.31;10277872;28;20061;-72
2022/01/20 15:05:56;;;;;;;6.88;3.25;;;;;;;-146.07;100.00;70291.31;10278785;28;20216;-73
2022/01/20 15:10:57;;;;;;;8.82;2.97;;;;;;;-146.07;100.00;70291.31;10246551;28;20402;-76
2022/01/20 15:15:57;;;;;;;5.40;2.30;;;;;;;-146.07;100.00;70291.31;10277649;28;20055;-74
2022/01/20 15:20:58;;;;;;;5.00;2.47;;;;;;;-146.07;100.00;70291.31;10280044;28;20106;-72
2022/01/20 15:25:59;;;;;;;7.03;1.80;;;;;;;-146.07;100.00;70291.31;10262607;28;20571;-73
2022/01/20 15:31:00;;;;;;;11.95;2.75;;;;;;;-146.07;100.00;70291.31;10288218;28;20424;-71
2022/01/20 15:36:01;;;;;;;8.85;3.45;;;;;;;-146.07;100.00;70291.31;10317609;28;20038;-74
2022/01/20 15:41:03;;;;;;;6.47;2.70;;;;;;;-146.07;100.00;70291.31;10298792;28;20031;-77
2022/01/20 15:46:05;;;;;;;7.05;2.65;;;;;;;-146.07;100.00;70291.31;10317396;28;20026;-75
2022/01/20 15:51:05;;;;;;;15.13;3.67;;;;;;;-146.07;100.00;70291.31;10318067;28;20492;-76
2022/01/20 15:56:06;;;;;;;6.35;2.95;;;;;;;-146.07;100.00;70291.31;10316512;28;20113;-73
2022/01/20 16:01:08;;;;;;;3.30;1.42;;;;;;;-146.07;100.00;70291.31;10300840;28;20034;-73
2022/01/20 16:06:09;;;;;;;8.65;3.10;;;;;;;-146.07;100.00;70291.31;10317868;28;20038;-80
2022/01/20 16:11:10;;;;;;;4.47;2.45;;;;;;;-146.07;100.00;70291.31;10301600;28;20463;-73
2022/01/20 16:16:14;;;;;;;6.50;2.90;;;;;;;-146.07;100.00;70291.31;10317616;28;20113;-73
2022/01/20 16:21:16;;;;;;;4.90;2.60;;;;;;;-146.07;100.00;70291.31;10269288;28;20034;-79
2022/01/20 16:26:17;;;;;;;7.40;2.80;;;;;;;-146.07;100.00;70291.31;10284704;28;20050;-71
2022/01/20 16:31:17;;;;;;;6.13;2.90;;;;;;;-146.07;100.00;70291.31;10290392;28;20026;-75
2022/01/20 16:36:18;;;;;;;9.88;3.30;;;;;;;-146.07;100.00;70291.31;10324578;28;20084;-74
2022/01/20 16:41:18;;;;;;;9.10;4.15;;;;;;;-146.07;100.00;70291.31;10326304;28;20157;-71
2022/01/20 16:46:19;;;;;;;15.15;4.32;;;;;;;-146.07;100.00;70291.31;10325843;28;20034;-75
2022/01/20 16:51:24;;;;;;;8.40;3.47;;;;;;;-146.07;100.00;70291.31;10290993;28;20027;-73
2022/01/20 16:56:26;;;;;;;12.60;3.28;;;;;;;-146.07;100.00;70291.31;10356983;28;20113;-73
2022/01/20 17:01:27;;;;;;;8.32;3.35;;;;;;;-146.07;100.00;70291.31;10322341;28;20129;-72
2022/01/20 17:06:28;;;;;;;5.78;3.40;;;;;;;-146.07;100.00;70291.31;10304244;28;20416;-71
2022/01/20 17:11:29;;;;;;;7.40;2.88;;;;;;;-146.07;100.00;70291.31;10334768;28;20476;-72
2022/01/20 17:16:29;;;;;;;5.72;2.83;;;;;;;-146.07;100.00;70291.31;10345077;28;20054;-73
2022/01/20 17:21:30;;;;;;;21.33;8.73;;;;;;;-146.07;100.00;70291.31;10359049;28;20508;-78
2022/01/20 17:26:33;;;;;;;21.98;10.30;;;;;;;-146.07;100.00;70291.31;10361976;28;20041;-76
2022/01/20 17:31:33;;;;;;;18.10;7.85;;;;;;;-146.07;100.00;70291.31;10363758;28;20157;-78
2022/01/20 17:36:34;;;;;;;27.58;10.00;;;;;;;-146.07;100.00;70291.31;10363331;28;20173;-79
2022/01/20 17:41:34;;;;;;;5.20;2.85;;;;;;;-146.07;100.00;70291.31;10361290;28;20084;-71
2022/01/20 17:46:35;;;;;;;23.38;8.77;;;;;;;-146.07;100.00;70291.31;10315274;28;20416;-73
2022/01/20 17:51:37;;;;;;;32.97;13.52;;;;;;;-146.07;100.00;70291.31;10345179;28;20103;-72
2022/01/20 17:56:39;;;;;;;32.92;11.55;;;;;;;-146.07;100.00;70291.31;10360696;28;20084;-72
2022/01/20 18:01:39;;;;;;;22.52;8.15;;;;;;;-146.07;100.00;70291.31;10309017;28;20518;-73
2022/01/20 18:06:40;;;;;;;35.72;11.10;;;;;;;-146.07;100.00;70291.31;10279083;28;20041;-72
2022/01/20 18:11:41;;;;;;;41.70;12.70;;;;;;;-146.07;100.00;70291.31;10319067;28;20030;-73
2022/01/20 18:16:43;;;;;;;18.33;9.50;;;;;;;-146.07;100.00;70291.31;10320328;28;20061;-73
2022/01/20 18:21:44;;;;;;;16.52;6.70;;;;;;;-146.07;100.00;70291.31;10321069;28;20066;-72
2022/01/20 18:26:44;;;;;;;29.95;9.48;;;;;;;-146.07;100.00;70291.31;10304379;28;20030;-72
2022/01/20 18:31:48;;;;;;;17.75;9.73;;;;;;;-146.07;100.00;70291.31;10275027;28;20025;-72
2022/01/20 18:36:50;;;;;;;31.77;11.60;;;;;;;-146.07;100.00;70291.31;10263363;28;20571;-73
2022/01/20 18:41:52;;;;;;;33.33;13.20;;;;;;;-146.07;100.00;70291.31;10263258;28;20094;-76
2022/01/20 18:46:52;;;;;;;38.25;12.77;;;;;;;-146.07;100.00;70291.31;10305381;28;20419;-73
2022/01/20 18:51:55;;;;;;;39.35;13.85;;;;;;;-146.07;100.00;70291.31;10354821;28;20041;-72
2022/01/20 18:56:55;;;;;;;30.85;12.52;;;;;;;-146.07;100.00;70291.31;10302108;28;20096;-73
2022/01/20 19:02:09;;;;;;;38.53;15.48;;;;;;;;;;10603229;27;20412;-73
2022/01/20 19:07:09;;;;;;;27.30;11.17;;;;;;;;;;10600599;28;20080;-71
2022/01/20 19:12:11;;;;;;;24.63;9.60;;;;;;;;;;10598973;28;20253;-73
2022/01/20 19:17:11;;;;;;;29.23;11.25;;;;;;;;;;10603680;27;20028;-77
2022/01/20 19:22:12;;;;;;;29.85;11.88;;;;;;;;;;10603481;28;20450;-75
2022/01/20 19:27:12;;;;;;;43.63;15.75;;;;;;;;;;10592242;28;20363;-79
2022/01/20 19:32:14;;;;;;;24.60;9.93;;;;;;;;;;10610148;28;20115;-77
2022/01/20 19:37:16;;;;;;;28.42;12.05;;;;;;;;;;10591596;28;20020;-79
2022/01/20 19:42:17;;;;;;;27.13;12.45;;;;;;;;;;10588937;28;20023;-74
2022/01/20 19:47:17;;;;;;;41.10;14.50;;;;;;;;;;10606465;28;20463;-76
2022/01/20 19:52:17;;;;;;;34.42;15.18;;;;;;;;;;10611023;28;20023;-77
2022/01/20 19:57:18;;;;;;;37.88;14.20;;;;;;;;;;10605848;28;20567;-72
2022/01/20 20:02:22;;;;;;;33.83;14.70;;;;;;;;;;10606057;28;20027;-73
2022/01/20 20:07:22;;;;;;;32.63;16.70;;;;;;;;;;10603774;28;20077;-71
2022/01/20 20:12:22;;;;;;;37.58;16.52;;;;;;;;;;10583896;28;20120;-71
2022/01/20 20:17:23;;;;;;;27.58;14.30;;;;;;;;;;10579873;28;20038;-75
2022/01/20 20:22:23;;;;;;;37.38;15.52;;;;;;;;;;10575274;28;20196;-76
2022/01/20 20:27:24;;;;;;;32.65;12.68;;;;;;;;;;10583733;28;20655;-75
2022/01/20 20:32:24;;;;;;;33.80;13.77;;;;;;;;;;10577005;28;20412;-72
2022/01/20 20:37:26;;;;;;;31.03;13.97;;;;;;;;;;10528741;28;20027;-74
2022/01/20 20:42:27;;;;;;;28.92;13.27;;;;;;;;;;10537148;28;20846;-73
2022/01/20 20:47:28;;;;;;;33.17;12.57;;;;;;;;;;10539031;28;20020;-73
2022/01/20 20:52:28;;;;;;;23.23;10.85;;;;;;;;;;10533678;28;20020;-74
2022/01/20 20:57:28;;;;;;;26.58;11.48;;;;;;;;;;10530553;28;20046;-70
2022/01/20 21:02:29;;;;;;;27.67;10.68;;;;;;;;;;10536036;28;20016;-74
2022/01/20 21:07:29;;;;;;;19.13;10.32;;;;;;;;;;10553343;28;20116;-73
2022/01/20 21:12:29;;;;;;;20.67;9.00;;;;;;;;;;10538279;28;20109;-73
2022/01/20 21:17:30;;;;;;;21.53;9.10;;;;;;;;;;10532018;28;20270;-74
2022/01/20 21:22:30;;;;;;;15.20;8.95;;;;;;;;;;10515752;28;20043;-75
2022/01/20 21:27:31;;;;;;;20.85;9.07;;;;;;;;;;10551121;28;20028;-72
2022/01/20 21:32:31;;;;;;;16.98;9.52;;;;;;;;;;10534415;28;20055;-74
2022/01/20 21:37:31;;;;;;;16.40;8.40;;;;;;;;;;10534643;28;20016;-73
2022/01/20 21:42:32;;;;;;;24.83;8.30;;;;;;;;;;10528185;28;20016;-74
2022/01/20 21:47:32;;;;;;;19.20;7.27;;;;;;;;;;10531302;28;20028;-72
2022/01/20 21:52:32;;;;;;;20.43;7.53;;;;;;;;;;10523409;28;20258;-72
2022/01/20 21:57:33;;;;;;;20.70;9.17;;;;;;;;;;10531894;28;20048;-75
2022/01/20 22:02:33;;;;;;;18.50;8.60;;;;;;;;;;10532359;28;20258;-72
2022/01/20 22:07:33;;;;;;;20.08;8.32;;;;;;;;;;10528341;28;20266;-72
2022/01/20 22:12:34;;;;;;;18.38;8.40;;;;;;;;;;10528249;28;20024;-73
2022/01/20 22:17:37;;;;;;;16.35;8.40;;;;;;;;;;10527299;28;20461;-73
2022/01/20 22:22:39;;;;;;;20.20;8.38;;;;;;;;;;10526799;28;20099;-72
2022/01/20 22:27:39;;;;;;;21.08;8.15;;;;;;;;;;10527058;28;20031;-73
2022/01/20 22:32:40;;;;;;;17.55;8.00;;;;;;;;;;10526423;28;20564;-74
2022/01/20 22:37:40;;;;;;;19.10;8.40;;;;;;;;;;10506806;28;20028;-77
2022/01/20 22:42:41;;;;;;;17.60;7.88;;;;;;;;;;10536704;28;20042;-72
2022/01/20 22:47:43;;;;;;;17.67;8.18;;;;;;;;;;10531014;28;20049;-74
2022/01/20 22:52:44;;;;;;;19.13;7.13;;;;;;;;;;10549117;28;20030;-71
2022/01/20 22:57:44;;;;;;;17.08;7.25;;;;;;;;;;10547350;28;20615;-72
2022/01/20 23:02:45;;;;;;;25.95;7.35;;;;;;;;;;10548322;28;20016;-74
2022/01/20 23:07:46;;;;;;;18.27;7.70;;;;;;;;;;10548074;28;20027;-71
2022/01/20 23:12:46;;;;;;;19.60;7.90;;;;;;;;;;10549119;28;20042;-72
2022/01/20 23:23:05;;;;;;;20.60;8.52;;;;;;;;;;10566400;28;20605;-71
2022/01/20 23:28:06;;;;;;;15.90;8.18;;;;;;;;;;10566015;28;20028;-71
2022/01/20 23:33:06;;;;;;;21.23;9.00;;;;;;;;;;10548630;28;20015;-70
2022/01/20 23:38:08;;;;;;;16.17;7.83;;;;;;;;;;10565829;28;20106;-71
2022/01/20 23:43:38;;;;;;;21.02;8.70;;;;;;;;;;10547244;28;20016;-70
2022/01/20 23:48:31;;;;;;;20.23;7.63;;;;;;;;;;10572280;28;20402;-73
2022/01/20 23:53:32;;;;;;;28.33;7.40;;;;;;;;;;10521791;28;20031;-73
2022/01/20 23:58:32;;;;;;;16.88;7.63;;;;;;;;;;10530753;28;20155;-71
